Time;durP1;ratioP1;P1;durP2;ratioP2;P2;SDS_P1;SDS_P2;PMS_P1;PMS_P2;Temp;Humidity;BMP_temperature;BMP_pressure;BME280_temperature;BME280_humidity;BME280_pressure;Samples;Min_cycle;Max_cycle;Signal;HPM_P1;HPM_P2
2022/04/11 00:01:49;;;;;;;20.97;5.83;;;;;;;9.20;75.77;98965.23;1708390;84;21201;-82
2022/04/11 00:04:55;;;;;;;13.28;5.40;;;;;;;9.15;76.24;98959.02;1708876;84;21201;-83
2022/04/11 00:08:01;;;;;;;12.50;5.58;;;;;;;9.11;76.51;98952.27;1708471;83;21188;-82
2022/04/11 00:11:08;;;;;;;12.50;5.62;;;;;;;9.08;76.87;98951.81;1709765;84;21150;-82
2022/04/11 00:14:14;;;;;;;11.35;6.10;;;;;;;9.03;77.33;98957.03;1708205;83;21272;-82
2022/04/11 00:17:21;;;;;;;19.55;5.50;;;;;;;8.96;77.82;98957.00;1708462;83;21619;-83
2022/04/11 00:20:28;;;;;;;13.93;5.97;;;;;;;8.88;78.37;98952.52;1708093;83;21207;-83
2022/04/11 00:23:35;;;;;;;11.57;5.92;;;;;;;8.86;78.90;98953.78;1708243;83;21220;-83
2022/04/11 00:26:41;;;;;;;14.70;5.83;;;;;;;8.82;79.33;98965.59;1708807;83;21189;-83
2022/04/11 00:29:46;;;;;;;13.90;5.70;;;;;;;8.78;79.59;98961.57;1709741;84;21174;-82
2022/04/11 00:32:52;;;;;;;19.27;6.42;;;;;;;8.76;79.92;98957.37;1708338;83;21212;-83
2022/04/11 00:35:58;;;;;;;17.70;6.87;;;;;;;8.72;80.17;98952.83;1709431;84;21220;-83
2022/04/11 00:39:03;;;;;;;19.27;7.12;;;;;;;8.72;80.64;98956.08;1709701;84;21256;-82
2022/04/11 00:42:19;;;;;;;15.58;6.12;;;;;;;8.67;81.23;98946.61;1709262;84;21773;-82
2022/04/11 00:45:25;;;;;;;17.90;6.40;;;;;;;8.64;81.82;98952.44;1708300;84;21342;-82
2022/04/11 00:48:30;;;;;;;15.43;5.97;;;;;;;8.59;82.26;98966.34;1708389;84;21781;-82
2022/04/11 00:51:36;;;;;;;14.13;6.37;;;;;;;8.54;82.58;98961.48;1709721;84;21177;-83
2022/04/11 00:54:42;;;;;;;13.98;5.95;;;;;;;8.50;82.79;98962.06;1709663;84;21782;-83
2022/04/11 00:57:49;;;;;;;14.83;6.10;;;;;;;8.45;83.08;98979.00;1708405;84;21228;-83
2022/04/11 01:00:55;;;;;;;12.18;5.75;;;;;;;8.40;83.35;98976.86;1708108;84;21201;-81
2022/04/11 01:04:03;;;;;;;12.05;5.55;;;;;;;8.35;83.58;98973.84;1708225;84;21165;-82
2022/04/11 01:07:09;;;;;;;11.65;5.67;;;;;;;8.30;83.83;98980.39;1708814;84;21189;-83
2022/04/11 01:10:16;;;;;;;13.60;6.25;;;;;;;8.23;84.05;98984.08;1708444;84;21181;-82
2022/04/11 01:13:21;;;;;;;13.62;5.50;;;;;;;8.14;84.37;98982.86;1709736;84;21200;-77
2022/04/11 01:16:35;;;;;;;18.98;6.20;;;;;;;8.06;84.75;98978.89;1709401;84;21197;-77
2022/04/11 01:19:40;;;;;;;12.28;5.97;;;;;;;8.01;85.03;98987.31;1709606;84;21161;-78
2022/04/11 01:22:46;;;;;;;14.70;6.37;;;;;;;7.94;85.29;98981.25;1708584;83;21208;-78
2022/04/11 01:25:57;;;;;;;13.05;5.90;;;;;;;7.89;85.58;98974.70;1710452;83;21279;-78
2022/04/11 01:29:04;;;;;;;12.45;6.05;;;;;;;7.80;85.76;98971.77;1709991;84;21694;-83
2022/04/11 01:32:12;;;;;;;12.07;6.45;;;;;;;7.72;86.33;98977.34;1708383;84;21201;-82
2022/04/11 01:35:34;;;;;;;12.88;5.80;;;;;;;7.69;86.94;98979.91;1709646;84;21216;-82
2022/04/11 01:38:39;;;;;;;10.98;6.65;;;;;;;7.66;87.18;98987.08;1708291;84;21874;-82
2022/04/11 01:41:45;;;;;;;20.85;8.00;;;;;;;7.62;87.21;98987.13;1709619;84;21224;-82
2022/04/11 01:44:52;;;;;;;17.05;7.17;;;;;;;7.58;87.20;98980.41;1709739;84;21181;-82
2022/04/11 01:47:58;;;;;;;14.10;7.55;;;;;;;7.56;87.39;98985.17;1708697;84;21240;-82
2022/04/11 01:51:04;;;;;;;10.95;5.87;;;;;;;7.54;87.71;98992.17;1709269;84;21208;-82
2022/04/11 01:54:05;;;;;;;18.10;7.08;;;;;;;7.51;88.03;98987.63;1709597;84;21782;-83
2022/04/11 01:56:58;;;;;;;17.82;7.78;;;;;;;7.41;88.36;98987.39;1709362;84;21216;-83
2022/04/11 02:00:03;;;;;;;29.75;8.43;;;;;;;7.37;88.80;98987.95;1709745;84;21213;-82
2022/04/11 02:03:11;;;;;;;27.13;8.60;;;;;;;7.35;88.91;98983.23;1708689;84;21229;-83
2022/04/11 02:06:16;;;;;;;15.58;6.75;;;;;;;7.33;89.10;98983.39;1709453;84;21742;-83
2022/04/11 02:09:21;;;;;;;18.52;7.35;;;;;;;7.32;89.24;98979.00;1709697;84;21169;-82
2022/04/11 02:12:31;;;;;;;14.00;6.47;;;;;;;7.28;89.37;98979.03;1708333;84;21233;-83
2022/04/11 02:15:37;;;;;;;12.20;6.95;;;;;;;7.25;89.56;98978.08;1708304;84;21722;-82
2022/04/11 02:18:44;;;;;;;14.13;7.35;;;;;;;7.20;89.78;98983.72;1708381;83;21189;-82
2022/04/11 02:21:50;;;;;;;18.32;7.42;;;;;;;7.17;89.95;98976.80;1709138;84;21209;-83
2022/04/11 02:24:57;;;;;;;16.62;7.53;;;;;;;7.15;89.98;98972.05;1708362;83;21188;-82
2022/04/11 02:28:04;;;;;;;16.00;6.20;;;;;;;7.11;90.24;98972.95;1714012;83;21228;-82
2022/04/11 02:31:10;;;;;;;23.50;7.00;;;;;;;7.09;90.50;98975.00;1719879;83;21161;-82
2022/04/11 02:34:17;;;;;;;15.80;6.78;;;;;;;7.05;90.89;98981.84;1719592;83;21193;-82
2022/04/11 02:37:23;;;;;;;12.37;6.50;;;;;;;7.03;91.28;98985.27;1719060;83;21176;-83
2022/04/11 02:40:28;;;;;;;15.70;7.12;;;;;;;7.03;91.22;98983.06;1719860;83;21168;-83
2022/04/11 02:43:37;;;;;;;13.93;6.75;;;;;;;7.00;91.17;98986.15;1718354;83;21219;-83
2022/04/11 02:46:44;;;;;;;15.10;6.40;;;;;;;6.99;91.42;98971.71;1719699;83;21239;-83
2022/04/11 02:49:45;;;;;;;17.82;6.12;;;;;;;6.96;91.58;98973.44;1718728;83;21220;-82
2022/04/11 02:52:39;;;;;;;20.23;7.37;;;;;;;6.94;91.74;98961.07;1719266;83;21247;-82
2022/04/11 02:55:25;;;;;;;17.90;7.70;;;;;;;6.93;91.94;98960.75;1719916;83;21824;-83
2022/04/11 02:58:18;;;;;;;16.45;7.45;;;;;;;6.88;91.96;98956.71;1718728;83;21255;-82
2022/04/11 03:01:26;;;;;;;25.68;7.58;;;;;;;6.85;91.70;98970.66;1719812;83;21173;-83
2022/04/11 03:04:34;;;;;;;17.32;7.87;;;;;;;6.82;91.69;98969.69;1719895;83;21180;-82
2022/04/11 03:07:37;;;;;;;23.70;7.87;;;;;;;6.80;91.77;98974.45;1719107;83;21227;-83
2022/04/11 03:10:30;;;;;;;20.75;7.78;;;;;;;6.79;91.23;98962.41;1719832;83;21705;-82
2022/04/11 03:13:37;;;;;;;21.00;7.08;;;;;;;6.75;90.71;98963.29;1718706;83;22142;-83
2022/04/11 03:16:45;;;;;;;13.15;6.62;;;;;;;6.74;90.19;98967.56;1718595;83;21820;-82
2022/04/11 03:19:51;;;;;;;20.00;7.28;;;;;;;6.71;89.92;98966.05;1718808;83;21228;-83
2022/04/11 03:22:52;;;;;;;17.87;7.67;;;;;;;6.70;89.58;98968.44;1719475;83;21200;-82
2022/04/11 03:25:59;;;;;;;16.42;7.25;;;;;;;6.70;89.20;98966.23;1719861;83;21745;-82
2022/04/11 03:29:01;;;;;;;15.58;6.58;;;;;;;6.64;89.41;98971.91;1717447;83;21205;-82
2022/04/11 03:32:07;;;;;;;16.82;6.53;;;;;;;6.63;90.16;98972.91;1716712;83;21192;-82
2022/04/11 03:35:14;;;;;;;15.58;7.45;;;;;;;6.67;90.76;98981.02;1716922;83;21224;-82
2022/04/11 03:38:21;;;;;;;19.07;7.03;;;;;;;6.78;91.35;98987.39;1717036;83;21200;-82
2022/04/11 03:41:27;;;;;;;14.47;7.00;;;;;;;6.95;91.85;98988.58;1717010;83;21232;-82
2022/04/11 03:44:35;;;;;;;14.95;6.37;;;;;;;7.11;92.21;98986.55;1716939;83;21164;-82
2022/04/11 03:47:42;;;;;;;13.55;7.17;;;;;;;7.27;91.88;98992.84;1717075;83;21208;-82
2022/04/11 03:50:50;;;;;;;16.60;7.05;;;;;;;7.39;91.50;98988.63;1715560;83;21185;-82
2022/04/11 03:53:59;;;;;;;18.60;6.15;;;;;;;7.53;91.16;98998.66;1716084;83;21252;-81
2022/04/11 03:57:05;;;;;;;14.63;5.95;;;;;;;7.66;90.66;99004.77;1716639;83;21268;-82
2022/04/11 04:00:13;;;;;;;10.25;6.30;;;;;;;7.76;90.40;99011.28;1715831;83;21212;-82
2022/04/11 04:03:22;;;;;;;17.12;7.08;;;;;;;7.90;90.37;99014.01;1714999;83;21223;-82
2022/04/11 04:06:29;;;;;;;27.17;7.62;;;;;;;8.11;90.78;99017.80;1716845;83;21185;-82
2022/04/11 04:09:36;;;;;;;22.07;7.05;;;;;;;8.36;91.23;99007.38;1712922;83;21225;-82
2022/04/11 04:12:42;;;;;;;18.48;6.60;;;;;;;8.64;91.90;99015.66;1715152;83;21821;-83
2022/04/11 04:15:48;;;;;;;22.87;7.33;;;;;;;8.92;92.49;99020.63;1714874;83;21208;-82
2022/04/11 04:18:56;;;;;;;16.62;6.92;;;;;;;9.17;92.70;99014.73;1715045;83;21481;-82
2022/04/11 04:22:01;;;;;;;19.70;7.25;;;;;;;9.36;92.30;99029.55;1716196;83;21228;-83
2022/04/11 04:25:07;;;;;;;19.50;6.75;;;;;;;9.45;91.80;99025.10;1716494;83;21216;-83
2022/04/11 04:28:17;;;;;;;21.40;7.58;;;;;;;9.56;91.62;99020.98;1716492;83;21774;-83
2022/04/11 04:31:22;;;;;;;22.02;7.58;;;;;;;9.70;91.51;99015.92;1723422;83;21180;-82
2022/04/11 04:34:33;;;;;;;20.82;7.53;;;;;;;9.84;90.85;99012.73;1724894;83;21785;-78
2022/04/11 04:37:37;;;;;;;21.93;7.97;;;;;;;9.97;90.57;99023.73;1725634;83;21208;-82
2022/04/11 04:40:42;;;;;;;14.73;6.95;;;;;;;10.04;90.04;99022.90;1724713;83;21211;-77
2022/04/11 04:43:48;;;;;;;19.92;7.92;;;;;;;10.08;89.84;99023.66;1725327;83;21224;-77
2022/04/11 04:46:55;;;;;;;21.68;6.90;;;;;;;10.14;89.65;99022.83;1724964;83;21219;-83
2022/04/11 04:50:03;;;;;;;28.30;7.05;;;;;;;10.21;89.61;99026.97;1723937;83;21295;-83
2022/04/11 04:53:11;;;;;;;20.32;7.15;;;;;;;10.30;89.84;99023.00;1723785;83;21769;-83
2022/04/11 04:56:19;;;;;;;22.75;8.10;;;;;;;10.43;90.03;99024.41;1725133;82;21172;-82
2022/04/11 04:59:27;;;;;;;16.10;7.10;;;;;;;10.60;90.09;99025.41;1725217;83;21186;-82
2022/04/11 05:02:44;;;;;;;27.82;8.78;;;;;;;10.79;89.65;99039.64;1724378;83;21192;-82
2022/04/11 05:05:50;;;;;;;26.70;7.78;;;;;;;10.90;89.09;99037.64;1725312;83;21163;-82
2022/04/11 05:08:57;;;;;;;23.38;7.75;;;;;;;11.02;88.90;99020.61;1725299;83;21239;-82
2022/04/11 05:11:57;;;;;;;27.80;8.70;;;;;;;11.14;88.53;99007.96;1724080;83;21239;-82
2022/04/11 05:14:49;;;;;;;23.87;8.10;;;;;;;11.28;87.86;99006.89;1725589;83;21196;-82
2022/04/11 05:17:37;;;;;;;24.20;7.55;;;;;;;11.40;87.18;99006.57;1725352;83;21203;-82
2022/04/11 05:20:30;;;;;;;20.90;7.47;;;;;;;11.51;87.00;99008.64;1725360;83;21725;-82
2022/04/11 05:23:16;;;;;;;17.35;7.45;;;;;;;11.64;86.27;99015.99;1724170;83;21207;-82
2022/04/11 05:26:10;;;;;;;25.57;8.13;;;;;;;11.73;85.66;99010.60;1700368;83;21176;-82
2022/04/11 05:29:16;;;;;;;17.10;7.08;;;;;;;11.83;84.97;99014.28;1725441;83;21156;-83
2022/04/11 05:32:21;;;;;;;22.35;8.23;;;;;;;11.92;84.61;99010.25;1709292;83;21208;-82
2022/04/11 05:35:27;;;;;;;24.95;8.25;;;;;;;12.07;84.41;99008.61;1708967;84;21181;-82
2022/04/11 05:38:35;;;;;;;27.98;7.70;;;;;;;12.22;83.91;99004.21;1707348;84;21245;-82
2022/04/11 05:41:40;;;;;;;17.87;6.97;;;;;;;12.34;83.37;99003.84;1707069;84;21232;-82
2022/04/11 05:44:45;;;;;;;23.12;7.58;;;;;;;12.43;83.10;98999.78;1707612;84;21209;-82
2022/04/11 05:47:52;;;;;;;24.25;8.93;;;;;;;12.52;82.75;99005.85;1707195;84;21256;-82
2022/04/11 05:50:59;;;;;;;27.35;8.65;;;;;;;12.66;82.55;99014.84;1707949;84;22096;-83
2022/04/11 05:54:05;;;;;;;25.20;7.70;;;;;;;12.75;81.46;99023.95;1708443;84;21747;-82
2022/04/11 05:57:05;;;;;;;25.02;8.63;;;;;;;12.78;80.93;99006.19;1708216;84;21774;-82
2022/04/11 06:00:11;;;;;;;28.27;9.80;;;;;;;12.83;81.39;99009.64;1707149;84;21189;-82
2022/04/11 06:03:17;;;;;;;30.32;9.10;;;;;;;12.81;80.40;99010.41;1708064;84;21810;-82
2022/04/11 06:06:23;;;;;;;27.05;10.10;;;;;;;12.79;80.66;99007.86;1708960;84;21185;-83
2022/04/11 06:09:30;;;;;;;32.30;11.25;;;;;;;12.88;80.46;99009.27;1708277;83;21261;-82
2022/04/11 06:12:35;;;;;;;36.83;11.43;;;;;;;12.99;79.42;99009.94;1708921;82;21218;-78
2022/04/11 06:15:40;;;;;;;24.95;10.18;;;;;;;13.03;78.93;99004.82;1738883;82;21160;-77
2022/04/11 06:18:46;;;;;;;33.50;11.85;;;;;;;13.06;78.81;99009.87;1734335;82;21166;-78
2022/04/11 06:21:54;;;;;;;37.63;11.70;;;;;;;13.09;78.33;99004.48;1722782;82;21209;-78
2022/04/11 06:25:05;;;;;;;39.83;12.33;;;;;;;13.08;78.59;99014.62;1709542;84;21225;-78
2022/04/11 06:28:10;;;;;;;30.02;10.45;;;;;;;13.13;78.12;99024.94;1730923;82;21837;-78
2022/04/11 06:31:19;;;;;;;27.62;10.03;;;;;;;13.19;78.25;99017.17;1724839;81;21285;-78
2022/04/11 06:34:27;;;;;;;36.77;11.45;;;;;;;13.32;78.05;99017.63;1739114;81;21164;-77
2022/04/11 06:37:32;;;;;;;34.43;10.90;;;;;;;13.40;76.99;99020.89;1734160;81;21790;-77
2022/04/11 06:40:38;;;;;;;29.85;10.80;;;;;;;13.39;76.30;99023.34;1746775;81;21176;-82
2022/04/11 06:43:45;;;;;;;34.78;11.05;;;;;;;13.32;76.52;99027.23;1687269;83;21325;-83
2022/04/11 06:46:55;;;;;;;33.20;10.75;;;;;;;13.30;76.50;99021.41;1663849;82;21193;-83
2022/04/11 06:50:02;;;;;;;26.77;10.68;;;;;;;13.41;76.64;99024.48;1701146;84;21193;-83
2022/04/11 06:53:07;;;;;;;28.30;10.10;;;;;;;13.51;76.49;99027.03;1707321;83;21286;-83
2022/04/11 07:00:55;;;;;;;25.35;9.98;;;;;;;13.76;73.89;99023.39;1893731;75;27911;-82
2022/04/11 07:04:01;;;;;;;25.80;10.03;;;;;;;13.75;73.91;99030.80;1888447;75;21309;-82
2022/04/11 07:07:07;;;;;;;20.17;9.85;;;;;;;13.86;73.91;99029.73;1884625;75;21128;-82
2022/04/11 07:10:14;;;;;;;28.80;10.10;;;;;;;14.04;73.68;99018.20;1898514;75;21184;-82
2022/04/11 07:13:22;;;;;;;32.90;10.08;;;;;;;14.28;72.70;99022.45;1868610;76;21151;-82
2022/04/11 07:16:27;;;;;;;20.82;9.65;;;;;;;14.45;71.08;99023.50;1864972;76;21164;-82
2022/04/11 07:19:32;;;;;;;27.93;9.18;;;;;;;14.46;69.86;99011.95;1859807;76;21114;-83
2022/04/11 07:22:39;;;;;;;49.03;20.77;;;;;;;14.47;70.49;99010.34;1864253;75;21750;-83
2022/04/11 07:25:45;;;;;;;81.12;47.98;;;;;;;14.46;69.19;99018.30;1864964;75;21159;-83
2022/04/11 07:28:52;;;;;;;94.35;53.17;;;;;;;14.39;69.80;99041.45;1872156;75;21161;-82
2022/04/11 07:31:57;;;;;;;107.32;58.68;;;;;;;14.27;70.71;99042.78;1866662;75;21167;-82
2022/04/11 07:35:07;;;;;;;116.08;61.25;;;;;;;14.21;70.34;99054.17;1876089;75;21155;-82
2022/04/11 07:38:13;;;;;;;119.53;60.60;;;;;;;14.11;70.49;99055.77;1874553;75;21176;-83
2022/04/11 07:41:19;;;;;;;105.95;52.88;;;;;;;14.01;70.96;99059.89;1857852;75;21719;-83
2022/04/11 07:44:25;;;;;;;93.97;53.68;;;;;;;13.95;71.96;99064.94;1851269;77;21199;-83
2022/04/11 07:47:32;;;;;;;107.15;52.30;;;;;;;13.95;71.85;99060.81;1845434;77;21870;-84
2022/04/11 07:50:38;;;;;;;104.40;53.08;;;;;;;13.99;72.44;99054.33;1843598;77;21258;-82
2022/04/11 07:53:44;;;;;;;106.05;54.18;;;;;;;14.05;72.39;99047.36;1842934;77;21100;-82
2022/04/11 07:56:49;;;;;;;101.05;54.53;;;;;;;14.06;71.51;99060.03;1846792;77;21160;-82
2022/04/11 07:59:55;;;;;;;114.20;56.30;;;;;;;13.97;72.19;99068.31;1828748;77;21248;-82
2022/04/11 08:03:04;;;;;;;109.20;54.67;;;;;;;13.81;72.35;99060.11;1827394;78;21172;-82
2022/04/11 08:06:09;;;;;;;102.92;54.83;;;;;;;13.64;73.82;99067.25;1827384;78;21221;-82
2022/04/11 08:09:15;;;;;;;95.72;52.33;;;;;;;13.53;73.88;99084.48;1813541;78;21179;-82
2022/04/11 08:12:22;;;;;;;105.95;54.00;;;;;;;13.33;73.91;99079.17;1825881;78;21164;-82
2022/04/11 08:15:31;;;;;;;99.13;51.53;;;;;;;13.16;74.96;99090.36;1791628;80;21250;-83
2022/04/11 08:18:39;;;;;;;91.75;46.02;;;;;;;12.98;75.54;99083.72;1835414;78;21694;-83
2022/04/11 08:21:45;;;;;;;86.63;41.20;;;;;;;12.78;75.73;99084.39;1809387;78;21155;-83
2022/04/11 08:24:51;;;;;;;88.47;42.83;;;;;;;12.60;76.55;99086.48;1805280;79;22325;-83
2022/04/11 08:27:57;;;;;;;75.30;42.75;;;;;;;12.47;76.72;99089.32;1827521;78;21439;-83
2022/04/11 08:31:03;;;;;;;89.80;47.60;;;;;;;12.40;77.33;99078.36;1822171;78;21618;-83
2022/04/11 08:34:10;;;;;;;71.82;40.50;;;;;;;12.43;78.08;99079.31;1816489;76;21172;-83
2022/04/11 08:37:15;;;;;;;80.30;42.45;;;;;;;12.45;78.19;99076.34;1805553;78;21153;-82
2022/04/11 08:40:21;;;;;;;84.67;45.88;;;;;;;12.51;78.24;99067.22;1823280;78;21155;-83
2022/04/11 08:43:32;;;;;;;90.20;48.23;;;;;;;12.50;78.09;99059.53;1823079;77;21161;-83
2022/04/11 08:46:39;;;;;;;94.65;49.35;;;;;;;12.50;78.01;99043.08;1818372;78;21229;-83
2022/04/11 08:49:45;;;;;;;81.63;43.50;;;;;;;12.53;78.42;99042.65;1826549;77;21157;-83
2022/04/11 08:52:51;;;;;;;99.28;48.02;;;;;;;12.61;78.30;99040.69;1828648;77;21143;-82
2022/04/11 08:55:57;;;;;;;92.55;49.85;;;;;;;12.68;77.85;99034.11;1818495;78;21164;-82
2022/04/11 08:59:04;;;;;;;84.65;43.75;;;;;;;12.73;77.16;99027.42;1808921;78;21354;-82
2022/04/11 09:02:16;;;;;;;83.07;40.75;;;;;;;12.82;77.32;99025.80;1857238;76;21208;-82
2022/04/11 09:05:29;;;;;;;65.25;35.73;;;;;;;12.89;76.85;99030.19;1869263;76;21203;-82
2022/04/11 09:08:59;;;;;;;52.80;26.17;;;;;;;13.00;76.95;99028.09;1872886;76;21184;-82
2022/04/11 09:12:06;;;;;;;40.65;20.95;;;;;;;13.15;76.29;99021.42;1884071;76;21152;-82
2022/04/11 09:15:13;;;;;;;43.00;20.10;;;;;;;13.23;75.11;99022.55;1851380;76;21153;-82
2022/04/11 09:18:18;;;;;;;33.80;16.32;;;;;;;13.28;74.56;99034.53;1861906;76;21210;-82
2022/04/11 09:21:30;;;;;;;42.62;16.65;;;;;;;13.37;75.18;99026.86;1853815;76;21743;-82
2022/04/11 09:24:35;;;;;;;38.42;17.10;;;;;;;13.45;73.62;99038.91;1850360;76;21140;-81
2022/04/11 09:27:42;;;;;;;30.43;14.13;;;;;;;13.47;73.32;99042.28;1852281;77;21817;-80
2022/04/11 09:30:50;;;;;;;40.60;15.38;;;;;;;13.61;73.75;99037.50;1850836;76;21184;-82
2022/04/11 09:33:57;;;;;;;32.25;14.80;;;;;;;13.74;72.71;99033.79;1850568;76;21178;-82
2022/04/11 09:37:09;;;;;;;26.82;13.65;;;;;;;13.78;72.18;99017.13;1828869;78;21774;-82
2022/04/11 09:40:15;;;;;;;22.05;11.93;;;;;;;13.79;72.17;99022.95;1839152;78;21228;-83
2022/04/11 09:43:23;;;;;;;26.90;12.15;;;;;;;13.82;71.55;99021.09;1829311;78;21185;-83
2022/04/11 09:46:28;;;;;;;23.30;11.70;;;;;;;13.79;71.21;98996.84;1856858;77;21195;-83
2022/04/11 09:49:34;;;;;;;24.55;11.05;;;;;;;13.85;71.23;99003.33;1824592;76;21245;-82
2022/04/11 09:52:39;;;;;;;17.12;9.08;;;;;;;13.86;70.72;99015.45;1846462;77;21233;-83
2022/04/11 09:55:45;;;;;;;21.57;9.53;;;;;;;13.82;70.93;99019.72;1850691;77;21176;-83
2022/04/11 09:58:52;;;;;;;21.12;9.80;;;;;;;13.78;71.08;99010.25;1878321;76;21228;-82
2022/04/11 10:01:58;;;;;;;23.12;10.53;;;;;;;13.83;71.14;99020.02;1856795;76;21212;-83
2022/04/11 10:05:05;;;;;;;18.00;8.95;;;;;;;13.95;71.39;99013.24;1842387;78;21375;-83
2022/04/11 10:08:13;;;;;;;16.62;8.40;;;;;;;14.08;70.93;99025.46;1813385;79;21191;-83
2022/04/11 10:11:25;;;;;;;18.37;9.98;;;;;;;14.17;70.41;99021.33;1843214;78;21769;-82
2022/04/11 10:14:31;;;;;;;22.15;9.88;;;;;;;14.27;70.25;99012.53;1843813;78;21161;-83
2022/04/11 10:17:38;;;;;;;24.02;9.85;;;;;;;14.31;69.93;99012.38;1842330;78;21184;-83
2022/04/11 10:20:50;;;;;;;20.77;9.75;;;;;;;14.34;69.19;99020.14;1843528;78;21196;-83
2022/04/11 10:24:27;;;;;;;26.05;9.70;;;;;;;14.44;68.82;99005.83;1841607;78;21180;-83
2022/04/11 10:27:34;;;;;;;19.45;9.95;;;;;;;14.57;69.04;99034.57;1843383;78;21767;-83
2022/04/11 10:30:36;;;;;;;23.80;10.00;;;;;;;14.72;68.70;99017.63;1843512;78;21130;-83
2022/04/11 10:33:52;;;;;;;23.47;9.65;;;;;;;14.84;67.13;99024.02;1841998;78;21264;-83
2022/04/11 10:37:04;;;;;;;23.02;10.13;;;;;;;14.89;66.62;99041.20;1788526;79;21168;-83
2022/04/11 10:40:29;;;;;;;21.23;10.20;;;;;;;14.89;67.24;99032.95;1790569;79;21224;-83
2022/04/11 10:43:51;;;;;;;20.70;9.88;;;;;;;14.96;66.57;99035.05;1793253;79;21240;-83
2022/04/11 10:47:26;;;;;;;22.35;10.75;;;;;;;15.02;66.24;99021.20;1807862;79;21184;-83
2022/04/11 10:50:47;;;;;;;19.65;10.00;;;;;;;15.08;65.32;99031.25;1807937;79;21164;-83
2022/04/11 10:54:26;;;;;;;24.50;11.43;;;;;;;15.15;65.44;99028.92;1814515;78;21484;-83
2022/04/11 10:57:55;;;;;;;22.80;10.30;;;;;;;15.22;64.28;99026.37;1802688;79;21185;-83
2022/04/11 11:01:01;;;;;;;27.32;11.20;;;;;;;15.19;63.95;99021.33;1817702;78;22588;-82
2022/04/11 11:04:11;;;;;;;21.30;10.18;;;;;;;15.19;64.19;99022.70;1833596;77;21212;-82
2022/04/11 11:07:26;;;;;;;19.95;11.28;;;;;;;15.24;63.67;99024.23;1850277;77;22432;-83
2022/04/11 11:10:18;;;;;;;19.55;10.20;;;;;;;15.26;63.21;99008.30;1850277;77;21156;-82
2022/04/11 11:13:49;;;;;;;25.62;11.22;;;;;;;15.31;62.91;99006.20;1849581;77;21176;-82
2022/04/11 11:17:07;;;;;;;17.52;9.43;;;;;;;15.34;62.49;99003.81;1818854;79;21172;-82
2022/04/11 11:20:14;;;;;;;21.55;9.28;;;;;;;15.36;62.18;99019.26;1818096;79;21093;-82
2022/04/11 11:23:34;;;;;;;19.07;9.87;;;;;;;15.38;62.38;99019.30;1819463;79;21196;-82
2022/04/11 11:26:57;;;;;;;20.95;8.85;;;;;;;15.45;61.76;99021.96;1817332;79;21235;-82
2022/04/11 11:30:04;;;;;;;21.50;9.20;;;;;;;15.52;61.35;99010.27;1819179;79;22066;-82
2022/04/11 11:33:09;;;;;;;14.58;8.23;;;;;;;15.54;61.27;99007.58;1818442;79;21176;-83
2022/04/11 11:36:15;;;;;;;18.48;7.80;;;;;;;15.59;61.76;99018.72;1818049;79;21164;-83
2022/04/11 11:39:26;;;;;;;20.00;7.20;;;;;;;15.62;60.18;99010.53;1818240;79;21192;-83
2022/04/11 11:42:31;;;;;;;26.30;8.70;;;;;;;15.58;59.98;99013.45;1820132;77;21818;-83
2022/04/11 11:45:37;;;;;;;12.13;6.35;;;;;;;15.50;59.47;99009.68;1832601;78;21466;-82
2022/04/11 11:48:42;;;;;;;16.23;7.17;;;;;;;15.46;59.87;99002.97;1832650;78;21196;-83
2022/04/11 11:51:48;;;;;;;12.15;5.83;;;;;;;15.42;59.79;98994.33;1833100;78;21249;-83
2022/04/11 11:55:02;;;;;;;16.35;6.25;;;;;;;15.38;59.97;98987.63;1833383;78;21177;-83
2022/04/11 11:58:13;;;;;;;12.73;5.95;;;;;;;15.36;59.55;98989.79;1833391;78;21181;-83
2022/04/11 12:01:16;;;;;;;12.18;6.42;;;;;;;15.28;59.21;98998.41;1832790;78;21220;-82
2022/04/11 12:04:23;;;;;;;13.08;5.80;;;;;;;15.18;59.60;98983.02;1832789;78;21884;-82
2022/04/11 12:07:30;;;;;;;12.82;6.10;;;;;;;15.18;59.48;98983.84;1832686;78;21185;-83
2022/04/11 12:10:37;;;;;;;9.55;5.30;;;;;;;15.16;58.96;98976.91;1832480;78;21165;-82
2022/04/11 12:13:43;;;;;;;12.63;6.03;;;;;;;15.11;59.68;98982.30;1831036;77;21196;-82
2022/04/11 12:17:06;;;;;;;9.58;5.05;;;;;;;15.07;59.15;98995.16;1830256;78;21245;-82
2022/04/11 12:23:20;;;;;;;10.43;5.47;;;;;;;14.91;59.19;98989.49;1877297;76;28007;-84
2022/04/11 12:26:48;;;;;;;9.00;4.30;;;;;;;14.88;59.44;98992.73;1850819;77;21776;-84
2022/04/11 12:30:01;;;;;;;7.53;4.72;;;;;;;14.89;58.79;98982.86;1826179;77;21184;-84
2022/04/11 12:33:10;;;;;;;10.45;4.95;;;;;;;14.83;58.22;98976.39;1782301;80;21177;-83
2022/04/11 12:36:30;;;;;;;13.53;5.55;;;;;;;14.72;58.98;98977.72;1756702;80;21196;-83
2022/04/11 12:39:36;;;;;;;10.40;5.12;;;;;;;14.64;58.85;98991.30;1781085;80;21383;-84
2022/04/11 12:42:41;;;;;;;10.23;5.20;;;;;;;14.48;58.95;98976.81;1749325;82;21256;-84
2022/04/11 12:45:47;;;;;;;15.20;5.37;;;;;;;14.33;59.58;98981.34;1748970;82;21188;-83
2022/04/11 12:49:04;;;;;;;9.13;5.30;;;;;;;14.23;59.70;98982.43;1781870;80;21204;-84
2022/04/11 12:52:12;;;;;;;10.63;5.22;;;;;;;14.13;60.08;98984.90;1751929;82;21212;-84
2022/04/11 12:55:17;;;;;;;10.20;5.47;;;;;;;14.06;60.35;98973.43;1753091;82;21196;-84
2022/04/11 12:58:26;;;;;;;10.03;4.90;;;;;;;14.01;60.52;98960.91;1751627;82;21343;-84
2022/04/11 13:01:31;;;;;;;9.20;4.75;;;;;;;13.97;60.56;98963.84;1781510;80;21227;-84
2022/04/11 13:04:40;;;;;;;8.78;5.22;;;;;;;13.91;60.55;98951.55;1784672;80;21192;-83
2022/04/11 13:07:46;;;;;;;11.25;4.17;;;;;;;13.82;60.63;98966.13;1783338;80;21184;-84
2022/04/11 13:10:47;;;;;;;8.95;4.90;;;;;;;13.69;60.78;98952.55;1784887;80;21207;-84
2022/04/11 13:13:54;;;;;;;16.05;4.45;;;;;;;13.49;61.28;98947.28;1783317;80;21192;-84
2022/04/11 13:20:28;;;;;;;8.03;4.20;;;;;;;13.20;61.84;98930.45;1784800;80;21838;-83
2022/04/11 13:23:34;;;;;;;12.55;6.37;;;;;;;13.04;61.48;98922.27;1776288;80;21325;-84
2022/04/11 13:26:41;;;;;;;14.83;7.53;;;;;;;12.90;61.66;98919.88;1772964;81;21807;-84
2022/04/11 13:29:47;;;;;;;15.40;7.10;;;;;;;12.74;61.75;98927.59;1774500;81;21799;-84
2022/04/11 13:32:56;;;;;;;18.55;8.28;;;;;;;12.54;62.21;98935.14;1772083;81;21200;-84
2022/04/11 13:36:02;;;;;;;17.62;8.28;;;;;;;12.33;62.72;98925.39;1773875;81;21188;-84
2022/04/11 13:39:08;;;;;;;13.70;7.75;;;;;;;12.17;62.99;98933.59;1773911;81;21244;-84
2022/04/11 13:42:15;;;;;;;12.82;7.28;;;;;;;12.01;63.09;98917.15;1773750;81;21200;-83
2022/04/11 13:45:20;;;;;;;12.28;5.60;;;;;;;11.84;63.52;98915.96;1773856;81;21205;-84
2022/04/11 13:48:28;;;;;;;14.00;7.05;;;;;;;11.72;64.20;98904.00;1773862;81;21319;-84
2022/04/11 13:51:34;;;;;;;10.48;5.17;;;;;;;11.64;64.45;98909.18;1773217;81;21204;-84
2022/04/11 13:54:41;;;;;;;19.65;8.78;;;;;;;11.52;64.56;98917.22;1773198;81;21197;-84
2022/04/11 13:57:47;;;;;;;16.48;7.37;;;;;;;11.45;65.33;98901.89;1772534;81;21227;-83
2022/04/11 14:00:53;;;;;;;19.98;9.28;;;;;;;11.41;65.16;98915.16;1774042;81;21189;-84
2022/04/11 14:04:02;;;;;;;18.95;10.10;;;;;;;11.32;65.11;98936.98;1772654;81;21771;-83
2022/04/11 14:07:08;;;;;;;28.70;11.85;;;;;;;11.23;65.77;98906.26;1773680;81;22449;-83
2022/04/11 14:10:14;;;;;;;23.38;9.58;;;;;;;11.17;65.62;98888.50;1772522;81;21743;-84
2022/04/11 14:13:22;;;;;;;17.90;7.70;;;;;;;11.10;65.84;98883.55;1772474;81;21263;-83
2022/04/11 14:16:30;;;;;;;21.00;9.83;;;;;;;11.03;65.86;98881.37;1772818;80;21204;-84
2022/04/11 14:19:38;;;;;;;15.25;5.00;;;;;;;10.91;66.21;98876.55;1773980;81;21189;-84
2022/04/11 14:22:45;;;;;;;9.65;5.70;;;;;;;10.79;66.45;98882.37;1773837;81;21548;-84
2022/04/11 14:25:52;;;;;;;9.78;5.60;;;;;;;10.69;66.75;98851.34;1760440;81;21387;-84
2022/04/11 14:28:58;;;;;;;14.75;5.60;;;;;;;10.60;66.98;98873.66;1760457;81;21176;-83
2022/04/11 14:32:06;;;;;;;19.25;6.10;;;;;;;10.52;67.38;98847.89;1741339;82;21200;-83
2022/04/11 14:35:17;;;;;;;13.68;6.50;;;;;;;10.46;67.55;98853.16;1743677;82;21232;-83
2022/04/11 14:38:23;;;;;;;11.35;5.28;;;;;;;10.39;67.77;98862.39;1741391;82;21181;-84
2022/04/11 14:41:30;;;;;;;10.95;5.87;;;;;;;10.32;68.12;98839.17;1722395;82;21236;-84